createdAt,value
2019-06-26T00:00:25.244Z,101463.06
2019-06-26T00:02:55.063Z,101473.30
2019-06-26T00:05:24.919Z,101471.33
2019-06-26T00:07:54.833Z,101472.22
2019-06-26T00:10:24.741Z,101472.22
2019-06-26T00:12:54.582Z,101481.11
2019-06-26T00:15:24.545Z,101477.87
2019-06-26T00:17:54.230Z,101472.88
2019-06-26T00:20:24.099Z,101485.88
2019-06-26T00:22:54.143Z,101485.88
2019-06-26T00:25:23.825Z,101490.41
2019-06-26T00:27:53.548Z,101482.66
2019-06-26T00:30:23.358Z,101483.28
2019-06-26T00:32:53.172Z,101488.00
2019-06-26T00:35:22.994Z,101498.59
2019-06-26T00:37:52.824Z,101498.59
2019-06-26T00:40:22.928Z,101495.82
2019-06-26T00:42:52.846Z,101493.95
2019-06-26T00:45:22.573Z,101491.03
2019-06-26T00:47:52.405Z,101493.05
2019-06-26T00:50:22.271Z,101493.92
2019-06-26T00:52:52.021Z,101493.92
2019-06-26T00:55:21.935Z,101495.64
2019-06-26T00:57:51.676Z,101507.48
2019-06-26T01:00:27.129Z,101507.48
2019-06-26T01:02:56.872Z,101498.94
2019-06-26T01:05:26.600Z,101507.66
2019-06-26T01:07:56.491Z,101513.91
2019-06-26T01:10:26.364Z,101507.31
2019-06-26T01:12:56.107Z,101513.02
2019-06-26T01:15:25.888Z,101512.66
2019-06-26T01:17:55.648Z,101512.83
2019-06-26T01:20:25.393Z,101510.61
2019-06-26T01:22:55.091Z,101500.38
2019-06-26T01:25:24.881Z,101504.17
2019-06-26T01:27:54.769Z,101503.09
2019-06-26T01:30:24.614Z,101513.79
2019-06-26T01:32:54.443Z,101504.34
2019-06-26T01:35:24.253Z,101509.42
2019-06-26T01:37:54.021Z,101509.42
2019-06-26T01:40:23.875Z,101514.41
2019-06-26T01:42:53.557Z,101513.96
2019-06-26T01:45:23.332Z,101511.82
2019-06-26T01:47:53.225Z,101511.82
2019-06-26T01:50:23.066Z,101521.98
2019-06-26T01:52:52.852Z,101527.66
2019-06-26T01:55:22.611Z,101527.66
2019-06-26T01:57:52.379Z,101534.75
2019-06-26T02:00:22.540Z,101534.75
2019-06-26T02:02:52.417Z,101533.41
2019-06-26T02:05:22.236Z,101538.92
2019-06-26T02:07:52.072Z,101544.96
2019-06-26T02:10:21.949Z,101545.22
2019-06-26T02:12:51.740Z,101556.08
2019-06-26T02:15:21.675Z,101552.24
2019-06-26T02:17:51.608Z,101554.98
2019-06-26T02:20:21.335Z,101566.56
2019-06-26T02:22:51.105Z,101562.66
2019-06-26T02:25:21.011Z,101566.25
2019-06-26T02:27:50.859Z,101564.38
2019-06-26T02:30:20.692Z,101571.61
2019-06-26T02:32:50.499Z,101569.91
2019-06-26T02:35:20.295Z,101569.91
2019-06-26T02:37:50.157Z,101577.73
2019-06-26T02:40:20.100Z,101579.95
2019-06-26T02:42:49.952Z,101581.29
2019-06-26T02:45:19.662Z,101584.50
2019-06-26T02:47:49.433Z,101582.89
2019-06-26T02:50:19.229Z,101589.95
2019-06-26T02:52:49.087Z,101586.91
2019-06-26T02:55:18.946Z,101584.42
2019-06-26T02:57:48.685Z,101573.64
2019-06-26T03:00:18.573Z,101585.65
2019-06-26T03:02:48.287Z,101585.65
2019-06-26T03:05:18.171Z,101586.22
2019-06-26T03:07:47.945Z,101589.92
2019-06-26T03:10:17.946Z,101587.77
2019-06-26T03:12:47.645Z,101600.42
2019-06-26T03:15:17.989Z,101597.11
2019-06-26T03:17:55.520Z,101603.05
2019-06-26T03:20:22.213Z,101602.77
2019-06-26T03:22:52.078Z,101600.83
2019-06-26T03:25:22.049Z,101610.61
2019-06-26T03:27:51.833Z,101619.96
2019-06-26T03:30:21.786Z,101618.02
2019-06-26T03:32:51.565Z,101624.05
2019-06-26T03:35:21.405Z,101625.55
2019-06-26T03:37:51.189Z,101625.55
2019-06-26T03:40:21.032Z,101630.98
2019-06-26T03:42:50.836Z,101627.52
2019-06-26T03:45:25.568Z,101627.89
2019-06-26T03:47:52.271Z,101622.12
2019-06-26T03:50:22.233Z,101627.56
2019-06-26T03:52:52.170Z,101626.31
2019-06-26T03:55:22.118Z,101630.41
2019-06-26T03:57:51.877Z,101632.30
2019-06-26T04:00:33.507Z,101643.66
2019-06-26T04:03:03.200Z,101643.66
2019-06-26T04:05:33.794Z,101645.73
2019-06-26T04:08:03.819Z,101647.78
2019-06-26T04:10:34.581Z,101654.03
2019-06-26T04:13:04.666Z,101652.06
2019-06-26T04:15:41.883Z,101657.53
2019-06-26T04:18:06.081Z,101666.77
2019-06-26T04:20:35.844Z,101666.77
2019-06-26T04:23:05.698Z,101641.84
2019-06-26T04:25:38.082Z,101661.13
2019-06-26T04:28:06.981Z,101665.42
2019-06-26T04:30:36.769Z,101669.23
2019-06-26T04:33:06.547Z,101662.11
2019-06-26T04:35:36.265Z,101680.16
2019-06-26T04:38:06.106Z,101682.52
2019-06-26T04:40:35.876Z,101681.64
2019-06-26T04:43:05.674Z,101691.73
2019-06-26T04:45:35.435Z,101684.36
2019-06-26T04:48:07.170Z,101683.56
2019-06-26T04:50:36.767Z,101697.24
2019-06-26T04:53:06.627Z,101688.70
2019-06-26T04:55:36.522Z,101695.20
2019-06-26T04:58:06.336Z,101696.19
2019-06-26T05:00:36.126Z,101701.26
2019-06-26T05:03:06.019Z,101701.10
2019-06-26T05:05:39.808Z,101704.73
2019-06-26T05:08:07.233Z,101708.37
2019-06-26T05:10:37.060Z,101705.44
2019-06-26T05:13:06.858Z,101703.94
2019-06-26T05:15:36.666Z,101706.66
2019-06-26T05:18:06.444Z,101705.78
2019-06-26T05:20:36.189Z,101705.37
2019-06-26T05:23:06.015Z,101710.80
2019-06-26T05:25:35.818Z,101711.70
2019-06-26T05:28:08.264Z,101712.53
2019-06-26T05:30:37.201Z,101708.56
2019-06-26T05:33:06.905Z,101716.27
2019-06-26T05:35:36.877Z,101721.09
2019-06-26T05:38:06.736Z,101726.00
2019-06-26T05:40:36.426Z,101723.94
2019-06-26T05:43:06.314Z,101723.09
2019-06-26T05:45:36.161Z,101726.03
2019-06-26T05:48:06.078Z,101722.38
2019-06-26T05:50:35.886Z,101729.17
2019-06-26T05:53:05.803Z,101733.50
2019-06-26T05:55:35.649Z,101735.59
2019-06-26T05:58:05.442Z,101733.69
2019-06-26T06:00:35.219Z,101739.13
2019-06-26T06:03:05.152Z,101737.03
2019-06-26T06:05:35.034Z,101745.16
2019-06-26T06:08:04.871Z,101746.12
2019-06-26T06:10:34.723Z,101744.38
2019-06-26T06:13:04.586Z,101747.10
2019-06-26T06:15:34.314Z,101752.69
2019-06-26T06:18:04.261Z,101756.05
2019-06-26T06:20:38.883Z,101758.63
2019-06-26T06:23:08.800Z,101760.20
2019-06-26T06:25:38.711Z,101761.77
2019-06-26T06:28:08.556Z,101770.19
2019-06-26T06:30:38.324Z,101772.17
2019-06-26T06:33:08.187Z,101775.39
2019-06-26T06:35:37.957Z,101778.59
2019-06-26T06:38:07.933Z,101783.30
2019-06-26T06:40:37.702Z,101787.55
2019-06-26T06:43:07.501Z,101788.45
2019-06-26T06:45:37.349Z,101784.20
2019-06-26T06:48:07.134Z,101782.28
2019-06-26T06:50:36.845Z,101789.75
2019-06-26T06:53:06.708Z,101791.20
2019-06-26T06:55:36.512Z,101791.90
2019-06-26T06:58:06.319Z,101793.83
2019-06-26T07:00:36.255Z,101797.53
2019-06-26T07:03:06.090Z,101802.30
2019-06-26T07:05:35.898Z,101797.11
2019-06-26T07:08:05.769Z,101803.14
2019-06-26T07:10:35.674Z,101797.33
2019-06-26T07:13:06.348Z,101804.13
2019-06-26T07:15:36.141Z,101811.32
2019-06-26T07:18:06.007Z,101811.40
2019-06-26T07:20:35.869Z,101811.65
2019-06-26T07:23:05.783Z,101810.50
2019-06-26T07:25:35.636Z,101816.84
2019-06-26T07:28:05.458Z,101821.90
2019-06-26T07:30:35.243Z,101818.14
2019-06-26T07:33:05.235Z,101822.50
2019-06-26T07:35:35.072Z,101824.11
2019-06-26T07:38:04.823Z,101828.47
2019-06-26T07:40:34.767Z,101821.83
2019-06-26T07:43:04.568Z,101822.77
2019-06-26T07:45:34.274Z,101830.53
2019-06-26T07:48:04.146Z,101832.56
2019-06-26T07:50:34.012Z,101828.59
2019-06-26T07:53:04.754Z,101827.50
2019-06-26T07:55:34.437Z,101830.29
2019-06-26T07:58:04.321Z,101833.31
2019-06-26T08:00:34.294Z,101831.14
2019-06-26T08:03:04.712Z,101833.60
2019-06-26T08:05:34.999Z,101839.73
2019-06-26T08:08:04.810Z,101841.95
2019-06-26T08:10:34.519Z,101846.26
2019-06-26T08:13:04.572Z,101846.38
2019-06-26T08:15:34.407Z,101842.25
2019-06-26T08:18:04.170Z,101847.25
2019-06-26T08:20:47.036Z,101849.55
2019-06-26T08:23:05.341Z,101843.96
2019-06-26T08:25:35.197Z,101850.30
2019-06-26T08:28:05.067Z,101857.41
2019-06-26T08:30:34.897Z,101849.81
2019-06-26T08:33:04.883Z,101853.33
2019-06-26T08:35:34.665Z,101850.73
2019-06-26T08:38:12.419Z,101856.63
2019-06-26T08:40:36.136Z,101857.41
2019-06-26T08:43:06.002Z,101849.39
2019-06-26T08:45:35.847Z,101851.36
2019-06-26T08:48:17.273Z,101861.14
2019-06-26T08:50:37.097Z,101857.94
2019-06-26T08:53:06.971Z,101856.09
2019-06-26T08:55:36.764Z,101861.63
2019-06-26T08:58:06.640Z,101861.39
2019-06-26T09:00:36.469Z,101863.81
2019-06-26T09:03:06.239Z,101865.48
2019-06-26T09:05:47.574Z,101861.88
2019-06-26T09:08:07.491Z,101868.16
2019-06-26T09:10:37.425Z,101869.41
2019-06-26T09:13:07.199Z,101857.61
2019-06-26T09:15:36.966Z,101869.05
2019-06-26T09:18:06.751Z,101874.37
2019-06-26T09:20:41.024Z,101873.52
2019-06-26T09:23:10.849Z,101876.98
2019-06-26T09:25:40.617Z,101876.33
2019-06-26T09:28:10.402Z,101875.66
2019-06-26T09:30:40.222Z,101884.73
2019-06-26T09:33:09.976Z,101888.05
2019-06-26T09:35:39.821Z,101892.23
2019-06-26T09:38:09.580Z,101891.45
2019-06-26T09:40:39.369Z,101894.64
2019-06-26T09:43:09.193Z,101898.73
2019-06-26T09:45:38.985Z,101891.04
2019-06-26T09:48:08.833Z,101887.23
2019-06-26T09:50:38.647Z,101879.31
2019-06-26T09:53:08.407Z,101888.84
2019-06-26T09:55:38.160Z,101893.11
2019-06-26T09:58:07.900Z,101894.66
2019-06-26T10:00:37.896Z,101891.10
2019-06-26T10:03:07.690Z,101892.53
2019-06-26T10:05:37.451Z,101896.17
2019-06-26T10:08:07.236Z,101888.59
2019-06-26T10:10:36.935Z,101899.03
2019-06-26T10:13:06.808Z,101887.27
2019-06-26T10:15:36.641Z,101894.36
2019-06-26T10:18:06.502Z,101903.89
2019-06-26T10:20:36.262Z,101902.28
2019-06-26T10:23:06.021Z,101902.97
2019-06-26T10:25:35.881Z,101900.80
2019-06-26T10:28:05.721Z,101902.77
2019-06-26T10:30:35.503Z,101907.48
2019-06-26T10:33:05.265Z,101905.08
2019-06-26T10:35:35.063Z,101909.10
2019-06-26T10:38:04.935Z,101906.69
2019-06-26T10:40:34.721Z,101909.13
2019-06-26T10:43:04.592Z,101913.19
2019-06-26T10:45:36.192Z,101910.88
2019-06-26T10:48:05.903Z,101918.30
2019-06-26T10:50:47.421Z,101914.22
2019-06-26T10:53:07.238Z,101917.22
2019-06-26T10:55:37.005Z,101918.08
2019-06-26T10:58:06.824Z,101906.64
2019-06-26T11:00:36.635Z,101915.80
2019-06-26T11:03:06.435Z,101895.06
2019-06-26T11:05:36.189Z,101898.43
2019-06-26T11:08:05.995Z,101903.48
2019-06-26T11:10:35.749Z,101896.54
2019-06-26T11:13:05.637Z,101891.92
2019-06-26T11:15:35.455Z,101895.70
2019-06-26T11:18:05.413Z,101890.27
2019-06-26T11:20:35.267Z,101883.22
2019-06-26T11:23:05.061Z,101887.83
2019-06-26T11:25:34.890Z,101872.31
2019-06-26T11:28:04.817Z,101884.14
2019-06-26T11:30:34.621Z,101886.55
2019-06-26T11:33:04.526Z,101888.90
2019-06-26T11:35:34.373Z,101883.05
2019-06-26T11:38:04.271Z,101889.97
2019-06-26T11:40:34.142Z,101888.84
2019-06-26T11:43:03.999Z,101899.95
2019-06-26T11:45:33.919Z,101899.67
2019-06-26T11:48:03.822Z,101895.02
2019-06-26T11:50:33.576Z,101900.59
2019-06-26T11:53:03.453Z,101901.70
2019-06-26T11:55:33.357Z,101908.25
2019-06-26T11:58:03.233Z,101908.69
2019-06-26T12:00:32.946Z,101909.25
2019-06-26T12:03:02.720Z,101910.02
2019-06-26T12:05:32.435Z,101904.52
2019-06-26T12:08:02.210Z,101910.95
2019-06-26T12:10:31.933Z,101916.70
2019-06-26T12:13:04.261Z,101913.67
2019-06-26T12:15:33.252Z,101921.86
2019-06-26T12:18:03.022Z,101926.23
2019-06-26T12:20:32.801Z,101921.57
2019-06-26T12:23:02.569Z,101916.19
2019-06-26T12:25:32.344Z,101918.56
2019-06-26T12:28:02.150Z,101916.72
2019-06-26T12:30:32.153Z,101917.16
2019-06-26T12:33:03.611Z,101913.41
2019-06-26T12:35:33.453Z,101909.78
2019-06-26T12:38:03.297Z,101904.78
2019-06-26T12:40:32.998Z,101913.41
2019-06-26T12:43:02.761Z,101906.92
2019-06-26T12:45:32.632Z,101907.05
2019-06-26T12:48:02.308Z,101918.03
2019-06-26T12:50:35.966Z,101916.28
2019-06-26T12:53:03.561Z,101912.57
2019-06-26T12:55:33.299Z,101913.45
2019-06-26T12:58:13.219Z,101902.41
2019-06-26T13:00:34.839Z,101898.17
2019-06-26T13:03:05.098Z,101895.79
2019-06-26T13:05:34.852Z,101895.84
2019-06-26T13:08:04.824Z,101898.30
2019-06-26T13:10:48.491Z,101895.97
2019-06-26T13:13:06.120Z,101900.67
2019-06-26T13:15:35.933Z,101901.07
2019-06-26T13:18:05.778Z,101907.45
2019-06-26T13:20:51.587Z,101899.72
2019-06-26T13:23:07.162Z,101889.04
2019-06-26T13:25:36.933Z,101882.82
2019-06-26T13:28:06.815Z,101890.92
2019-06-26T13:30:39.971Z,101893.83
2019-06-26T13:33:09.809Z,101899.83
2019-06-26T13:35:39.680Z,101894.16
2019-06-26T13:38:09.546Z,101897.19
2019-06-26T13:40:41.070Z,101895.39
2019-06-26T13:43:11.081Z,101903.32
2019-06-26T13:45:40.828Z,101907.40
2019-06-26T13:48:10.604Z,101918.95
2019-06-26T13:50:40.519Z,101908.17
2019-06-26T13:53:10.306Z,101911.39
2019-06-26T13:55:40.859Z,101916.68
2019-06-26T13:58:10.772Z,101910.09
2019-06-26T14:00:40.465Z,101918.13
2019-06-26T14:03:10.294Z,101926.08
2019-06-26T14:05:40.174Z,101922.14
2019-06-26T14:08:09.990Z,101924.87
2019-06-26T14:10:39.796Z,101927.07
2019-06-26T14:13:09.941Z,101928.73
2019-06-26T14:15:39.623Z,101925.71
2019-06-26T14:18:09.387Z,101927.75
2019-06-26T14:20:39.184Z,101927.30
2019-06-26T14:23:09.275Z,101927.00
2019-06-26T14:25:38.973Z,101937.99
2019-06-26T14:28:08.659Z,101938.09
2019-06-26T14:30:38.388Z,101935.67
2019-06-26T14:33:08.204Z,101942.02
2019-06-26T14:35:38.138Z,101935.84
2019-06-26T14:38:07.978Z,101938.56
2019-06-26T14:40:37.807Z,101942.34
2019-06-26T14:43:07.623Z,101942.39
2019-06-26T14:45:37.397Z,101947.22
2019-06-26T14:48:07.227Z,101941.16
2019-06-26T14:50:36.972Z,101949.97
2019-06-26T14:53:06.676Z,101949.13
2019-06-26T14:55:36.447Z,101947.19
2019-06-26T14:58:06.333Z,101948.89
2019-06-26T15:00:36.317Z,101954.58
2019-06-26T15:03:06.180Z,101956.66
2019-06-26T15:05:35.862Z,101952.19
2019-06-26T15:08:05.790Z,101959.58
2019-06-26T15:10:35.664Z,101954.38
2019-06-26T15:13:05.575Z,101953.06
2019-06-26T15:15:35.469Z,101955.30
2019-06-26T15:18:05.260Z,101944.58
2019-06-26T15:20:34.973Z,101947.73
2019-06-26T15:23:04.779Z,101952.59
2019-06-26T15:25:34.567Z,101949.57
2019-06-26T15:28:04.507Z,101951.26
2019-06-26T15:30:34.453Z,101956.25
2019-06-26T15:33:04.281Z,101952.94
2019-06-26T15:35:34.436Z,101958.30
2019-06-26T15:38:04.454Z,101950.56
2019-06-26T15:40:34.436Z,101948.02
2019-06-26T15:43:04.251Z,101943.52
2019-06-26T15:45:34.034Z,101944.57
2019-06-26T15:48:03.930Z,101949.77
2019-06-26T15:50:33.608Z,101949.41
2019-06-26T15:53:03.317Z,101948.22
2019-06-26T15:55:33.135Z,101960.56
2019-06-26T15:58:02.902Z,101959.36
2019-06-26T16:00:32.652Z,101958.31
2019-06-26T16:03:02.416Z,101962.83
2019-06-26T16:05:32.134Z,101957.02
2019-06-26T16:08:01.832Z,101974.63
2019-06-26T16:10:34.471Z,101971.16
2019-06-26T16:13:03.289Z,101972.23
2019-06-26T16:15:33.757Z,101981.45
2019-06-26T16:18:21.498Z,101977.54
2019-06-26T16:20:51.245Z,101977.84
2019-06-26T16:23:21.036Z,101989.85
2019-06-26T16:25:50.796Z,101982.02
2019-06-26T16:28:20.519Z,101981.64
2019-06-26T16:30:50.327Z,101989.84
2019-06-26T16:33:20.018Z,101986.55
2019-06-26T16:35:49.857Z,101987.75
2019-06-26T16:38:19.735Z,101996.06
2019-06-26T16:40:49.481Z,101993.42
2019-06-26T16:43:19.235Z,101993.95
2019-06-26T16:45:49.027Z,101999.42
2019-06-26T16:48:18.800Z,101999.62
2019-06-26T16:50:48.600Z,102000.74
2019-06-26T16:53:18.405Z,102006.63
2019-06-26T16:55:48.180Z,102008.02
2019-06-26T16:58:17.855Z,102017.95
2019-06-26T17:00:47.750Z,102012.77
2019-06-26T17:03:17.639Z,102017.51
2019-06-26T17:05:47.395Z,102023.98
2019-06-26T17:08:17.178Z,102028.52
2019-06-26T17:10:46.994Z,102033.29
2019-06-26T17:13:16.827Z,102028.28
2019-06-26T17:15:46.668Z,102034.47
2019-06-26T17:18:16.369Z,102036.22
2019-06-26T17:20:46.209Z,102041.00
2019-06-26T17:23:15.980Z,102032.12
2019-06-26T17:25:45.731Z,102033.36
2019-06-26T17:28:15.429Z,102041.80
2019-06-26T17:30:45.096Z,102051.94
2019-06-26T17:33:14.921Z,102052.28
2019-06-26T17:35:44.775Z,102050.59
2019-06-26T17:38:14.446Z,102055.52
2019-06-26T17:40:44.165Z,102060.13
2019-06-26T17:43:13.843Z,102062.67
2019-06-26T17:45:43.754Z,102062.94
2019-06-26T17:48:13.425Z,102067.66
2019-06-26T17:50:43.134Z,102076.64
2019-06-26T17:53:21.486Z,102082.13
2019-06-26T17:55:44.225Z,102071.86
2019-06-26T17:58:13.934Z,102073.64
2019-06-26T18:00:43.633Z,102075.76
2019-06-26T18:03:13.500Z,102077.27
2019-06-26T18:05:43.228Z,102077.34
2019-06-26T18:08:12.989Z,102076.89
2019-06-26T18:10:42.788Z,102083.27
2019-06-26T18:13:12.477Z,102085.50
2019-06-26T18:15:42.306Z,102092.27
2019-06-26T18:18:12.087Z,102091.72
2019-06-26T18:20:41.849Z,102093.41
2019-06-26T18:23:11.636Z,102096.10
2019-06-26T18:25:42.572Z,102097.71
2019-06-26T18:28:12.405Z,102108.08
2019-06-26T18:30:42.251Z,102109.79
2019-06-26T18:33:12.102Z,102116.26
2019-06-26T18:35:41.883Z,102121.94
2019-06-26T18:38:11.845Z,102125.60
2019-06-26T18:40:41.515Z,102129.09
2019-06-26T18:43:11.211Z,102137.27
2019-06-26T18:45:41.006Z,102137.34
2019-06-26T18:48:10.772Z,102139.58
2019-06-26T18:50:40.652Z,102137.05
2019-06-26T18:53:10.426Z,102143.77
2019-06-26T18:55:40.186Z,102157.41
2019-06-26T18:58:09.975Z,102160.97
2019-06-26T19:00:39.728Z,102158.09
2019-06-26T19:03:09.526Z,102155.77
2019-06-26T19:05:39.778Z,102160.00
2019-06-26T19:08:09.508Z,102161.63
2019-06-26T19:10:39.262Z,102157.98
2019-06-26T19:13:08.982Z,102169.45
2019-06-26T19:15:38.731Z,102161.34
2019-06-26T19:18:08.529Z,102170.55
2019-06-26T19:20:38.210Z,102172.83
2019-06-26T19:23:07.937Z,102178.09
2019-06-26T19:25:37.695Z,102187.98
2019-06-26T19:28:07.500Z,102191.52
2019-06-26T19:30:37.262Z,102195.73
2019-06-26T19:33:07.123Z,102194.33
2019-06-26T19:35:36.919Z,102192.53
2019-06-26T19:38:06.749Z,102195.72
2019-06-26T19:40:36.540Z,102206.65
2019-06-26T19:43:06.318Z,102217.34
2019-06-26T19:45:36.020Z,102215.73
2019-06-26T19:48:05.834Z,102216.36
2019-06-26T19:50:35.562Z,102224.29
2019-06-26T19:53:05.398Z,102223.50
2019-06-26T19:55:35.166Z,102228.78
2019-06-26T19:58:04.985Z,102228.78
2019-06-26T20:00:34.739Z,102236.69
2019-06-26T20:03:04.521Z,102231.02
2019-06-26T20:05:34.281Z,102231.43
2019-06-26T20:08:04.121Z,102236.11
2019-06-26T20:10:33.943Z,102236.91
2019-06-26T20:13:03.662Z,102241.34
2019-06-26T20:15:33.578Z,102251.89
2019-06-26T20:18:04.391Z,102251.45
2019-06-26T20:20:34.291Z,102246.18
2019-06-26T20:23:04.031Z,102248.98
2019-06-26T20:25:33.902Z,102260.71
2019-06-26T20:28:03.734Z,102256.66
2019-06-26T20:30:33.900Z,102255.80
2019-06-26T20:33:03.763Z,102261.66
2019-06-26T20:35:33.530Z,102264.66
2019-06-26T20:38:03.359Z,102267.01
2019-06-26T20:40:33.077Z,102268.62
2019-06-26T20:43:03.013Z,102267.72
2019-06-26T20:45:32.799Z,102267.22
2019-06-26T20:48:02.586Z,102262.92
2019-06-26T20:50:32.363Z,102269.30
2019-06-26T20:53:02.087Z,102284.88
2019-06-26T20:55:31.803Z,102273.97
2019-06-26T20:58:01.496Z,102279.17
2019-06-26T21:00:31.318Z,102286.58
2019-06-26T21:03:01.115Z,102281.83
2019-06-26T21:05:30.806Z,102291.52
2019-06-26T21:08:00.594Z,102292.31
2019-06-26T21:10:30.361Z,102290.69
2019-06-26T21:13:00.091Z,102295.05
2019-06-26T21:15:29.978Z,102296.86
2019-06-26T21:17:59.680Z,102296.83
2019-06-26T21:20:29.373Z,102303.27
2019-06-26T21:22:59.118Z,102306.88
2019-06-26T21:25:28.813Z,102303.66
2019-06-26T21:27:58.600Z,102310.13
2019-06-26T21:30:28.319Z,102304.16
2019-06-26T21:32:58.048Z,102309.62
2019-06-26T21:35:27.804Z,102306.16
2019-06-26T21:37:57.612Z,102308.25
2019-06-26T21:40:27.295Z,102304.83
2019-06-26T21:42:57.038Z,102313.66
2019-06-26T21:45:26.832Z,102306.16
2019-06-26T21:47:56.660Z,102307.84
2019-06-26T21:50:28.831Z,102307.84
2019-06-26T21:52:57.942Z,102303.70
2019-06-26T21:55:34.409Z,102312.39
2019-06-26T21:57:59.192Z,102306.44
2019-06-26T22:00:30.987Z,102308.55
2019-06-26T22:03:00.918Z,102307.01
2019-06-26T22:05:30.760Z,102311.49
2019-06-26T22:08:00.584Z,102312.73
2019-06-26T22:10:30.481Z,102312.52
2019-06-26T22:13:00.252Z,102315.67
2019-06-26T22:15:30.066Z,102321.42
2019-06-26T22:17:59.871Z,102320.23
2019-06-26T22:20:29.738Z,102318.52
2019-06-26T22:22:59.448Z,102323.88
2019-06-26T22:25:29.312Z,102327.36
2019-06-26T22:27:59.097Z,102329.94
2019-06-26T22:30:29.055Z,102325.30
2019-06-26T22:32:59.210Z,102328.05
2019-06-26T22:35:28.973Z,102333.83
2019-06-26T22:37:58.776Z,102324.59
2019-06-26T22:40:28.536Z,102335.97
2019-06-26T22:42:58.572Z,102324.89
2019-06-26T22:45:28.325Z,102331.27
2019-06-26T22:47:58.040Z,102334.20
2019-06-26T22:50:27.807Z,102344.02
2019-06-26T22:52:57.576Z,102342.30
2019-06-26T22:55:27.443Z,102344.83
2019-06-26T22:57:57.215Z,102346.20
2019-06-26T23:00:26.994Z,102345.64
2019-06-26T23:02:56.829Z,102346.10
2019-06-26T23:05:26.715Z,102351.08
2019-06-26T23:07:56.584Z,102351.69
2019-06-26T23:10:26.423Z,102344.36
2019-06-26T23:12:56.143Z,102356.13
2019-06-26T23:15:25.916Z,102340.77
2019-06-26T23:17:56.318Z,102346.24
2019-06-26T23:20:26.132Z,102344.36
2019-06-26T23:22:55.921Z,102339.13
2019-06-26T23:25:25.796Z,102346.63
2019-06-26T23:27:55.476Z,102342.23
2019-06-26T23:30:25.435Z,102349.97
2019-06-26T23:32:55.251Z,102351.84
2019-06-26T23:35:25.006Z,102349.37
2019-06-26T23:37:54.950Z,102349.41
2019-06-26T23:40:24.716Z,102349.03
2019-06-26T23:42:54.530Z,102349.07
2019-06-26T23:45:24.364Z,102350.31
2019-06-26T23:47:54.154Z,102346.42
2019-06-26T23:50:23.834Z,102346.41
2019-06-26T23:52:53.640Z,102348.47
2019-06-26T23:55:23.431Z,102347.66
2019-06-26T23:57:58.979Z,102349.88
